THA02 VDPP-VTBD
Flight info
| Callsign | THA02 |
|---|---|
| Flight time | 1h 0m |
| Altitude | 36000 |
| Route | OLTAT2A VAPVU P629 NUGPA SEHNA3A |
| Aircraft | A320/M-SDE3FGHIRWY/LB1 |
Departure
| Time | 2026-04-22 14:06 |
|---|---|
| Airport | Phnom Penh International Airport (VDPP) |
Arrival
| Time | 2026-04-22 15:06 |
|---|---|
| Airport | Don Mueang International Airport (VTBD) |
| Time | Latitude | Longitude | Altitude | Speed | Heading |
|---|---|---|---|---|---|
| 2026-04-22 13:55 | 11.55171 | 104.84507 | 43 ft | 0 kts | 318° |
| 2026-04-22 13:57 | 11.55162 | 104.84515 | 43 ft | 3 kts | 318° |
| 2026-04-22 13:58 | 11.55147 | 104.84528 | 42 ft | 3 kts | 318° |
| 2026-04-22 13:58 | 11.55132 | 104.84542 | 43 ft | 3 kts | 318° |
| 2026-04-22 13:58 | 11.55117 | 104.84556 | 43 ft | 3 kts | 317° |
| 2026-04-22 13:58 | 11.55103 | 104.84570 | 43 ft | 3 kts | 320° |
| 2026-04-22 13:59 | 11.55086 | 104.84581 | 43 ft | 3 kts | 341° |
| 2026-04-22 13:59 | 11.55067 | 104.84585 | 43 ft | 3 kts | 5° |
| 2026-04-22 13:59 | 11.55052 | 104.84582 | 43 ft | 1 kts | 20° |
| 2026-04-22 13:59 | 11.55048 | 104.84580 | 43 ft | 0 kts | 20° |
| 2026-04-22 14:01 | 11.55049 | 104.84580 | 43 ft | 1 kts | 20° |
| 2026-04-22 14:02 | 11.55071 | 104.84589 | 43 ft | 6 kts | 18° |
| 2026-04-22 14:02 | 11.55129 | 104.84598 | 43 ft | 11 kts | 9° |
| 2026-04-22 14:02 | 11.55193 | 104.84645 | 43 ft | 12 kts | 51° |
| 2026-04-22 14:02 | 11.55231 | 104.84718 | 43 ft | 12 kts | 75° |
| 2026-04-22 14:03 | 11.55192 | 104.84787 | 43 ft | 12 kts | 119° |
| 2026-04-22 14:03 | 11.55133 | 104.84856 | 44 ft | 13 kts | 121° |
| 2026-04-22 14:03 | 11.55163 | 104.84940 | 44 ft | 14 kts | 43° |
| 2026-04-22 14:03 | 11.55238 | 104.85016 | 44 ft | 17 kts | 45° |
| 2026-04-22 14:04 | 11.55327 | 104.85109 | 42 ft | 20 kts | 45° |
| 2026-04-22 14:04 | 11.55434 | 104.85219 | 42 ft | 23 kts | 45° |
| 2026-04-22 14:04 | 11.55524 | 104.85331 | 42 ft | 19 kts | 64° |
| 2026-04-22 14:04 | 11.55584 | 104.85392 | 42 ft | 7 kts | 328° |
| 2026-04-22 14:05 | 11.55582 | 104.85376 | 41 ft | 3 kts | 245° |
| 2026-04-22 14:05 | 11.55557 | 104.85344 | 41 ft | 10 kts | 225° |
| 2026-04-22 14:05 | 11.54790 | 104.84554 | 44 ft | 136 kts | 225° |
| 2026-04-22 14:06 | 11.54053 | 104.83779 | 349 ft | 156 kts | 226° |
| 2026-04-22 14:06 | 11.53550 | 104.83254 | 794 ft | 156 kts | 226° |
| 2026-04-22 14:06 | 11.53107 | 104.81911 | 1602 ft | 162 kts | 283° |
| 2026-04-22 14:06 | 11.53571 | 104.80795 | 1955 ft | 182 kts | 295° |
| 2026-04-22 14:07 | 11.54150 | 104.79558 | 2261 ft | 205 kts | 294° |
| 2026-04-22 14:07 | 11.54568 | 104.78651 | 2487 ft | 221 kts | 294° |
| 2026-04-22 14:07 | 11.55252 | 104.77148 | 2942 ft | 245 kts | 294° |
| 2026-04-22 14:07 | 11.55997 | 104.75503 | 3563 ft | 262 kts | 294° |
| 2026-04-22 14:08 | 11.56769 | 104.73793 | 4459 ft | 268 kts | 294° |
| 2026-04-22 14:08 | 11.57552 | 104.72047 | 5369 ft | 273 kts | 294° |
| 2026-04-22 14:08 | 11.58346 | 104.70270 | 6251 ft | 277 kts | 294° |
| 2026-04-22 14:08 | 11.59150 | 104.68463 | 7099 ft | 281 kts | 294° |
| 2026-04-22 14:09 | 11.59966 | 104.66626 | 7916 ft | 286 kts | 294° |
| 2026-04-22 14:09 | 11.60791 | 104.64768 | 8697 ft | 290 kts | 294° |
| 2026-04-22 14:09 | 11.61620 | 104.62905 | 9437 ft | 294 kts | 294° |
| 2026-04-22 14:09 | 11.62472 | 104.60993 | 10158 ft | 297 kts | 294° |
| 2026-04-22 14:10 | 11.63356 | 104.59006 | 10446 ft | 318 kts | 294° |
| 2026-04-22 14:10 | 11.64302 | 104.56882 | 10637 ft | 337 kts | 294° |
| 2026-04-22 14:10 | 11.65285 | 104.54672 | 11121 ft | 345 kts | 294° |
| 2026-04-22 14:10 | 11.66270 | 104.52452 | 11683 ft | 349 kts | 294° |
| 2026-04-22 14:11 | 11.67275 | 104.50182 | 12244 ft | 352 kts | 294° |
| 2026-04-22 14:11 | 11.68296 | 104.47881 | 12784 ft | 356 kts | 294° |
| 2026-04-22 14:11 | 11.69322 | 104.45571 | 13297 ft | 359 kts | 294° |
| 2026-04-22 14:11 | 11.70359 | 104.43236 | 13788 ft | 362 kts | 294° |
| 2026-04-22 14:12 | 11.71402 | 104.40889 | 14253 ft | 365 kts | 294° |
| 2026-04-22 14:12 | 11.72458 | 104.38507 | 14702 ft | 368 kts | 294° |
| 2026-04-22 14:12 | 11.73508 | 104.36109 | 15136 ft | 371 kts | 293° |
| 2026-04-22 14:12 | 11.74497 | 104.33701 | 15553 ft | 374 kts | 291° |
| 2026-04-22 14:13 | 11.75464 | 104.31224 | 15970 ft | 377 kts | 291° |
| 2026-04-22 14:13 | 11.76424 | 104.28722 | 16375 ft | 379 kts | 291° |
| 2026-04-22 14:13 | 11.77391 | 104.26202 | 16762 ft | 382 kts | 291° |
| 2026-04-22 14:13 | 11.78375 | 104.23663 | 17144 ft | 385 kts | 291° |
| 2026-04-22 14:14 | 11.79368 | 104.21114 | 17509 ft | 387 kts | 291° |
| 2026-04-22 14:14 | 11.80360 | 104.18585 | 17858 ft | 390 kts | 291° |
| 2026-04-22 14:14 | 11.81376 | 104.16003 | 18208 ft | 392 kts | 291° |
| 2026-04-22 14:14 | 11.82396 | 104.13411 | 18539 ft | 395 kts | 291° |
| 2026-04-22 14:15 | 11.83490 | 104.10827 | 18858 ft | 397 kts | 297° |
| 2026-04-22 14:15 | 11.84913 | 104.08400 | 19167 ft | 399 kts | 301° |
| 2026-04-22 14:15 | 11.86369 | 104.06009 | 19470 ft | 402 kts | 301° |
| 2026-04-22 14:15 | 11.87825 | 104.03615 | 19767 ft | 404 kts | 301° |
| 2026-04-22 14:16 | 11.89320 | 104.01152 | 20058 ft | 406 kts | 301° |
| 2026-04-22 14:16 | 11.90812 | 103.98686 | 20340 ft | 408 kts | 301° |
| 2026-04-22 14:16 | 11.92304 | 103.96214 | 20609 ft | 410 kts | 301° |
| 2026-04-22 14:16 | 11.93810 | 103.93718 | 20867 ft | 412 kts | 301° |
| 2026-04-22 14:17 | 11.95319 | 103.91224 | 21107 ft | 414 kts | 301° |
| 2026-04-22 14:17 | 11.96816 | 103.88752 | 21335 ft | 415 kts | 301° |
| 2026-04-22 14:17 | 11.98342 | 103.86233 | 21557 ft | 417 kts | 301° |
| 2026-04-22 14:17 | 11.99869 | 103.83710 | 21749 ft | 418 kts | 301° |
| 2026-04-22 14:18 | 12.01402 | 103.81171 | 21953 ft | 420 kts | 301° |
| 2026-04-22 14:18 | 12.02942 | 103.78622 | 22159 ft | 422 kts | 301° |
| 2026-04-22 14:18 | 12.04470 | 103.76094 | 22359 ft | 423 kts | 301° |
| 2026-04-22 14:18 | 12.06021 | 103.73531 | 22558 ft | 425 kts | 301° |
| 2026-04-22 14:19 | 12.07580 | 103.70956 | 22746 ft | 426 kts | 301° |
| 2026-04-22 14:19 | 12.09142 | 103.68373 | 22923 ft | 428 kts | 301° |
| 2026-04-22 14:19 | 12.10707 | 103.65781 | 23095 ft | 429 kts | 301° |
| 2026-04-22 14:19 | 12.12276 | 103.63177 | 23260 ft | 430 kts | 301° |
| 2026-04-22 14:20 | 12.15427 | 103.57951 | 23582 ft | 433 kts | 301° |
| 2026-04-22 14:20 | 12.17010 | 103.55325 | 23737 ft | 434 kts | 301° |
| 2026-04-22 14:20 | 12.18599 | 103.52692 | 23885 ft | 435 kts | 301° |
| 2026-04-22 14:21 | 12.21777 | 103.47430 | 24170 ft | 438 kts | 301° |
| 2026-04-22 14:21 | 12.23381 | 103.44769 | 24313 ft | 439 kts | 301° |
| 2026-04-22 14:22 | 12.26587 | 103.39433 | 24574 ft | 441 kts | 301° |
| 2026-04-22 14:22 | 12.28152 | 103.36828 | 24697 ft | 442 kts | 301° |
| 2026-04-22 14:22 | 12.31361 | 103.31487 | 24951 ft | 443 kts | 301° |
| 2026-04-22 14:23 | 12.32972 | 103.28801 | 25076 ft | 443 kts | 301° |
| 2026-04-22 14:23 | 12.34590 | 103.26102 | 25201 ft | 444 kts | 301° |
| 2026-04-22 14:23 | 12.36214 | 103.23400 | 25327 ft | 444 kts | 301° |
| 2026-04-22 14:23 | 12.37816 | 103.20736 | 25450 ft | 444 kts | 301° |
| 2026-04-22 14:24 | 12.39439 | 103.18043 | 25575 ft | 444 kts | 301° |
| 2026-04-22 14:24 | 12.41063 | 103.15345 | 25700 ft | 445 kts | 301° |
| 2026-04-22 14:24 | 12.42685 | 103.12646 | 25825 ft | 445 kts | 301° |
| 2026-04-22 14:24 | 12.44304 | 103.09950 | 25950 ft | 445 kts | 301° |
| 2026-04-22 14:25 | 12.45921 | 103.07256 | 26074 ft | 445 kts | 301° |
| 2026-04-22 14:25 | 12.47541 | 103.04553 | 26199 ft | 445 kts | 301° |
| 2026-04-22 14:25 | 12.49138 | 103.01889 | 26322 ft | 445 kts | 301° |
| 2026-04-22 14:25 | 12.50763 | 102.99183 | 26448 ft | 444 kts | 301° |
| 2026-04-22 14:26 | 12.52382 | 102.96484 | 26572 ft | 444 kts | 301° |
| 2026-04-22 14:26 | 12.54006 | 102.93780 | 26698 ft | 444 kts | 301° |
| 2026-04-22 14:26 | 12.55622 | 102.91083 | 26822 ft | 444 kts | 301° |
| 2026-04-22 14:26 | 12.57217 | 102.88419 | 26945 ft | 444 kts | 301° |
| 2026-04-22 14:27 | 12.58837 | 102.85713 | 27071 ft | 444 kts | 301° |
| 2026-04-22 14:27 | 12.60449 | 102.83019 | 27195 ft | 444 kts | 301° |
| 2026-04-22 14:27 | 12.62065 | 102.80316 | 27321 ft | 444 kts | 301° |
| 2026-04-22 14:27 | 12.63679 | 102.77614 | 27446 ft | 444 kts | 301° |
| 2026-04-22 14:28 | 12.65293 | 102.74912 | 27571 ft | 444 kts | 301° |
| 2026-04-22 14:28 | 12.66889 | 102.72243 | 27695 ft | 444 kts | 301° |
| 2026-04-22 14:28 | 12.68503 | 102.69543 | 27820 ft | 444 kts | 301° |
| 2026-04-22 14:28 | 12.70119 | 102.66837 | 27945 ft | 444 kts | 301° |
| 2026-04-22 14:29 | 12.71731 | 102.64136 | 28070 ft | 444 kts | 301° |
| 2026-04-22 14:29 | 12.73341 | 102.61440 | 28195 ft | 444 kts | 301° |
| 2026-04-22 14:29 | 12.74957 | 102.58735 | 28320 ft | 444 kts | 301° |
| 2026-04-22 14:29 | 12.76569 | 102.56038 | 28445 ft | 444 kts | 301° |
| 2026-04-22 14:30 | 12.78120 | 102.53342 | 28568 ft | 444 kts | 297° |
| 2026-04-22 14:30 | 12.79355 | 102.50446 | 28694 ft | 443 kts | 291° |
| 2026-04-22 14:30 | 12.80472 | 102.47499 | 28819 ft | 443 kts | 291° |
| 2026-04-22 14:30 | 12.81586 | 102.44556 | 28943 ft | 443 kts | 291° |
| 2026-04-22 14:31 | 12.82703 | 102.41613 | 29068 ft | 443 kts | 291° |
| 2026-04-22 14:31 | 12.83823 | 102.38669 | 29193 ft | 443 kts | 291° |
| 2026-04-22 14:31 | 12.84932 | 102.35758 | 29317 ft | 443 kts | 291° |
| 2026-04-22 14:31 | 12.86057 | 102.32811 | 29442 ft | 443 kts | 291° |
| 2026-04-22 14:32 | 12.87181 | 102.29869 | 29567 ft | 443 kts | 291° |
| 2026-04-22 14:32 | 12.88302 | 102.26935 | 29692 ft | 443 kts | 291° |
| 2026-04-22 14:32 | 12.89424 | 102.23991 | 29817 ft | 442 kts | 291° |
| 2026-04-22 14:32 | 12.90504 | 102.21151 | 29935 ft | 443 kts | 291° |
| 2026-04-22 14:33 | 12.91619 | 102.18209 | 30060 ft | 443 kts | 291° |
| 2026-04-22 14:33 | 12.92719 | 102.15301 | 30183 ft | 443 kts | 291° |
| 2026-04-22 14:33 | 12.93834 | 102.12354 | 30308 ft | 442 kts | 291° |
| 2026-04-22 14:33 | 12.94950 | 102.09408 | 30433 ft | 442 kts | 291° |
| 2026-04-22 14:34 | 12.96068 | 102.06467 | 30558 ft | 442 kts | 291° |
| 2026-04-22 14:34 | 12.97187 | 102.03524 | 30683 ft | 442 kts | 291° |
| 2026-04-22 14:34 | 12.98293 | 102.00617 | 30806 ft | 442 kts | 291° |
| 2026-04-22 14:34 | 12.99408 | 101.97684 | 30960 ft | 441 kts | 291° |
| 2026-04-22 14:35 | 13.00523 | 101.94742 | 31030 ft | 442 kts | 291° |
| 2026-04-22 14:35 | 13.01644 | 101.91782 | 30903 ft | 448 kts | 291° |
| 2026-04-22 14:35 | 13.02765 | 101.88812 | 30655 ft | 454 kts | 291° |
| 2026-04-22 14:35 | 13.03909 | 101.85784 | 30404 ft | 454 kts | 291° |
| 2026-04-22 14:36 | 13.05055 | 101.82753 | 30152 ft | 453 kts | 291° |
| 2026-04-22 14:36 | 13.06194 | 101.79742 | 29902 ft | 451 kts | 291° |
| 2026-04-22 14:36 | 13.07315 | 101.76776 | 29654 ft | 449 kts | 291° |
| 2026-04-22 14:36 | 13.08444 | 101.73783 | 29403 ft | 447 kts | 291° |
| 2026-04-22 14:37 | 13.09570 | 101.70797 | 29152 ft | 445 kts | 291° |
| 2026-04-22 14:37 | 13.10690 | 101.67838 | 28901 ft | 443 kts | 291° |
| 2026-04-22 14:37 | 13.11790 | 101.64934 | 28654 ft | 441 kts | 291° |
| 2026-04-22 14:37 | 13.12898 | 101.62002 | 28403 ft | 439 kts | 291° |
| 2026-04-22 14:38 | 13.14001 | 101.59082 | 28152 ft | 437 kts | 291° |
| 2026-04-22 14:38 | 13.15068 | 101.56257 | 27915 ft | 434 kts | 291° |
| 2026-04-22 14:38 | 13.16146 | 101.53404 | 27655 ft | 423 kts | 291° |
| 2026-04-22 14:38 | 13.17203 | 101.50600 | 27406 ft | 422 kts | 291° |
| 2026-04-22 14:39 | 13.18244 | 101.47829 | 27088 ft | 419 kts | 290° |
| 2026-04-22 14:39 | 13.19288 | 101.45048 | 26633 ft | 415 kts | 291° |
| 2026-04-22 14:39 | 13.20323 | 101.42299 | 26191 ft | 411 kts | 291° |
| 2026-04-22 14:40 | 13.22027 | 101.37772 | 25453 ft | 405 kts | 290° |
| 2026-04-22 14:40 | 13.23363 | 101.34219 | 24873 ft | 400 kts | 290° |
| 2026-04-22 14:40 | 13.24360 | 101.31566 | 24425 ft | 396 kts | 290° |
| 2026-04-22 14:40 | 13.25347 | 101.28934 | 23984 ft | 392 kts | 290° |
| 2026-04-22 14:41 | 13.26324 | 101.26333 | 23527 ft | 389 kts | 290° |
| 2026-04-22 14:41 | 13.27297 | 101.23744 | 23071 ft | 385 kts | 290° |
| 2026-04-22 14:41 | 13.28258 | 101.21183 | 22609 ft | 382 kts | 290° |
| 2026-04-22 14:41 | 13.29194 | 101.18671 | 22153 ft | 379 kts | 289° |
| 2026-04-22 14:42 | 13.29828 | 101.16059 | 21836 ft | 374 kts | 279° |
| 2026-04-22 14:42 | 13.30287 | 101.13391 | 21595 ft | 382 kts | 280° |
| 2026-04-22 14:42 | 13.30768 | 101.10702 | 21344 ft | 383 kts | 280° |
| 2026-04-22 14:42 | 13.31258 | 101.08012 | 21093 ft | 381 kts | 280° |
| 2026-04-22 14:43 | 13.31747 | 101.05335 | 20843 ft | 380 kts | 280° |
| 2026-04-22 14:43 | 13.32232 | 101.02674 | 20592 ft | 378 kts | 280° |
| 2026-04-22 14:43 | 13.32713 | 101.00025 | 20341 ft | 377 kts | 280° |
| 2026-04-22 14:43 | 13.33188 | 100.97390 | 20091 ft | 375 kts | 280° |
| 2026-04-22 14:44 | 13.33654 | 100.94798 | 19989 ft | 373 kts | 280° |
| 2026-04-22 14:44 | 13.34129 | 100.92167 | 19972 ft | 374 kts | 282° |
| 2026-04-22 14:44 | 13.35028 | 100.89669 | 19712 ft | 372 kts | 299° |
| 2026-04-22 14:44 | 13.36406 | 100.87417 | 19464 ft | 371 kts | 302° |
| 2026-04-22 14:45 | 13.37786 | 100.85216 | 19216 ft | 370 kts | 302° |
| 2026-04-22 14:45 | 13.39180 | 100.82998 | 18965 ft | 368 kts | 302° |
| 2026-04-22 14:45 | 13.40569 | 100.80788 | 18714 ft | 366 kts | 302° |
| 2026-04-22 14:45 | 13.41949 | 100.78593 | 18463 ft | 365 kts | 302° |
| 2026-04-22 14:46 | 13.43319 | 100.76407 | 18213 ft | 363 kts | 302° |
| 2026-04-22 14:46 | 13.44684 | 100.74225 | 17962 ft | 361 kts | 302° |
| 2026-04-22 14:46 | 13.46021 | 100.72083 | 17714 ft | 360 kts | 302° |
| 2026-04-22 14:46 | 13.47367 | 100.69921 | 17464 ft | 358 kts | 302° |
| 2026-04-22 14:47 | 13.48705 | 100.67771 | 17213 ft | 356 kts | 302° |
| 2026-04-22 14:47 | 13.50041 | 100.65629 | 16963 ft | 355 kts | 302° |
| 2026-04-22 14:47 | 13.50940 | 100.64189 | 16793 ft | 354 kts | 302° |
| 2026-04-22 14:47 | 13.52248 | 100.62095 | 16546 ft | 352 kts | 302° |
| 2026-04-22 14:48 | 13.54013 | 100.59270 | 16211 ft | 350 kts | 302° |
| 2026-04-22 14:48 | 13.55326 | 100.57164 | 15960 ft | 348 kts | 302° |
| 2026-04-22 14:48 | 13.56634 | 100.55067 | 15709 ft | 347 kts | 302° |
| 2026-04-22 14:48 | 13.57933 | 100.52984 | 15458 ft | 345 kts | 302° |
| 2026-04-22 14:49 | 13.59208 | 100.50936 | 15211 ft | 344 kts | 302° |
| 2026-04-22 14:49 | 13.61765 | 100.46819 | 14711 ft | 341 kts | 302° |
| 2026-04-22 14:49 | 13.63050 | 100.44751 | 14458 ft | 339 kts | 302° |
| 2026-04-22 14:50 | 13.64318 | 100.42711 | 14207 ft | 337 kts | 302° |
| 2026-04-22 14:50 | 13.65564 | 100.40708 | 13959 ft | 336 kts | 302° |
| 2026-04-22 14:50 | 13.66826 | 100.38682 | 13708 ft | 334 kts | 302° |
| 2026-04-22 14:50 | 13.68076 | 100.36674 | 13457 ft | 333 kts | 302° |
| 2026-04-22 14:51 | 13.69294 | 100.34716 | 13213 ft | 331 kts | 302° |
| 2026-04-22 14:51 | 13.70563 | 100.32668 | 12955 ft | 330 kts | 302° |
| 2026-04-22 14:51 | 13.71795 | 100.30681 | 12704 ft | 328 kts | 302° |
| 2026-04-22 14:51 | 13.73218 | 100.28881 | 12453 ft | 327 kts | 320° |
| 2026-04-22 14:52 | 13.75195 | 100.27757 | 12202 ft | 326 kts | 343° |
| 2026-04-22 14:52 | 13.77441 | 100.27528 | 11951 ft | 325 kts | 6° |
| 2026-04-22 14:52 | 13.79582 | 100.28223 | 11701 ft | 324 kts | 29° |
| 2026-04-22 14:52 | 13.81519 | 100.29424 | 11452 ft | 324 kts | 31° |
| 2026-04-22 14:53 | 13.83416 | 100.30621 | 11204 ft | 322 kts | 31° |
| 2026-04-22 14:53 | 13.85314 | 100.31816 | 10951 ft | 316 kts | 31° |
| 2026-04-22 14:53 | 13.87170 | 100.32982 | 10700 ft | 310 kts | 31° |
| 2026-04-22 14:53 | 13.88999 | 100.34131 | 10448 ft | 305 kts | 31° |
| 2026-04-22 14:54 | 13.90198 | 100.34884 | 10282 ft | 303 kts | 31° |
| 2026-04-22 14:54 | 13.92577 | 100.36382 | 10061 ft | 302 kts | 31° |
| 2026-04-22 14:54 | 13.94366 | 100.37510 | 9935 ft | 301 kts | 31° |
| 2026-04-22 14:54 | 13.96155 | 100.38635 | 9809 ft | 301 kts | 31° |
| 2026-04-22 14:55 | 13.97340 | 100.39379 | 9727 ft | 300 kts | 31° |
| 2026-04-22 14:55 | 13.99124 | 100.40500 | 9600 ft | 300 kts | 31° |
| 2026-04-22 14:55 | 14.00908 | 100.41620 | 9474 ft | 299 kts | 31° |
| 2026-04-22 14:55 | 14.02682 | 100.42734 | 9349 ft | 298 kts | 31° |
| 2026-04-22 14:56 | 14.04459 | 100.43848 | 9224 ft | 298 kts | 31° |
| 2026-04-22 14:56 | 14.06227 | 100.44958 | 9097 ft | 297 kts | 31° |
| 2026-04-22 14:56 | 14.07999 | 100.46073 | 8810 ft | 296 kts | 31° |
| 2026-04-22 14:56 | 14.09723 | 100.47159 | 8685 ft | 286 kts | 31° |
| 2026-04-22 14:57 | 14.11399 | 100.48215 | 8557 ft | 278 kts | 31° |
| 2026-04-22 14:57 | 14.13008 | 100.49228 | 8432 ft | 270 kts | 31° |
| 2026-04-22 14:57 | 14.14591 | 100.50225 | 8276 ft | 263 kts | 31° |
| 2026-04-22 14:57 | 14.16154 | 100.51207 | 7949 ft | 260 kts | 31° |
| 2026-04-22 14:58 | 14.17685 | 100.52169 | 7674 ft | 257 kts | 31° |
| 2026-04-22 14:58 | 14.19091 | 100.53287 | 7406 ft | 255 kts | 49° |
| 2026-04-22 14:58 | 14.19974 | 100.54850 | 7143 ft | 252 kts | 72° |
| 2026-04-22 14:58 | 14.20196 | 100.56625 | 6833 ft | 251 kts | 96° |
| 2026-04-22 14:59 | 14.19972 | 100.58406 | 6532 ft | 250 kts | 98° |
| 2026-04-22 14:59 | 14.19739 | 100.60181 | 6231 ft | 249 kts | 98° |
| 2026-04-22 14:59 | 14.19511 | 100.61953 | 5932 ft | 249 kts | 98° |
| 2026-04-22 14:59 | 14.19282 | 100.63719 | 5633 ft | 248 kts | 100° |
| 2026-04-22 15:00 | 14.18718 | 100.65349 | 5338 ft | 245 kts | 123° |
| 2026-04-22 15:00 | 14.17556 | 100.66619 | 4948 ft | 246 kts | 147° |
| 2026-04-22 15:00 | 14.15995 | 100.67294 | 4602 ft | 242 kts | 166° |
| 2026-04-22 15:00 | 14.14346 | 100.67746 | 4159 ft | 243 kts | 165° |
| 2026-04-22 15:01 | 14.12733 | 100.68201 | 3734 ft | 238 kts | 165° |
| 2026-04-22 15:01 | 14.11185 | 100.68642 | 3556 ft | 222 kts | 165° |
| 2026-04-22 15:01 | 14.09746 | 100.69053 | 3443 ft | 207 kts | 165° |
| 2026-04-22 15:01 | 14.08392 | 100.69387 | 3343 ft | 198 kts | 175° |
| 2026-04-22 15:02 | 14.07064 | 100.69262 | 3174 ft | 188 kts | 198° |
| 2026-04-22 15:02 | 14.05904 | 100.68690 | 2948 ft | 181 kts | 209° |
| 2026-04-22 15:02 | 14.04804 | 100.68072 | 2711 ft | 177 kts | 209° |
| 2026-04-22 15:02 | 14.03748 | 100.67479 | 2484 ft | 173 kts | 209° |
| 2026-04-22 15:03 | 14.02711 | 100.66896 | 2259 ft | 165 kts | 209° |
| 2026-04-22 15:03 | 14.01729 | 100.66345 | 2070 ft | 152 kts | 209° |
| 2026-04-22 15:03 | 14.00829 | 100.65840 | 1854 ft | 144 kts | 209° |
| 2026-04-22 15:03 | 13.99962 | 100.65353 | 1666 ft | 140 kts | 209° |
| 2026-04-22 15:04 | 13.99120 | 100.64880 | 1482 ft | 139 kts | 209° |
| 2026-04-22 15:04 | 13.98271 | 100.64404 | 1297 ft | 138 kts | 209° |
| 2026-04-22 15:04 | 13.97427 | 100.63930 | 1115 ft | 138 kts | 209° |
| 2026-04-22 15:04 | 13.96589 | 100.63459 | 932 ft | 137 kts | 209° |
| 2026-04-22 15:05 | 13.95751 | 100.62989 | 749 ft | 137 kts | 209° |
| 2026-04-22 15:05 | 13.94917 | 100.62521 | 568 ft | 137 kts | 209° |
| 2026-04-22 15:05 | 13.94083 | 100.62053 | 374 ft | 135 kts | 208° |
| 2026-04-22 15:05 | 13.93248 | 100.61589 | 225 ft | 136 kts | 209° |
| 2026-04-22 15:06 | 13.92437 | 100.61124 | 40 ft | 135 kts | 209° |
| 2026-04-22 15:06 | 13.91705 | 100.60721 | 15 ft | 94 kts | 209° |
| 2026-04-22 15:06 | 13.91300 | 100.60491 | 16 ft | 27 kts | 208° |
| 2026-04-22 15:06 | 13.91227 | 100.60449 | 17 ft | 12 kts | 212° |
| 2026-04-22 15:07 | 13.91185 | 100.60408 | 17 ft | 7 kts | 228° |
| 2026-04-22 15:07 | 13.91147 | 100.60363 | 17 ft | 10 kts | 229° |
| 2026-04-22 15:07 | 13.91103 | 100.60299 | 17 ft | 12 kts | 240° |
| 2026-04-22 15:07 | 13.91118 | 100.60223 | 17 ft | 13 kts | 331° |
| 2026-04-22 15:08 | 13.91201 | 100.60247 | 17 ft | 6 kts | 28° |
| 2026-04-22 15:08 | 13.91245 | 100.60271 | 17 ft | 9 kts | 28° |
| 2026-04-22 15:08 | 13.91271 | 100.60285 | 17 ft | 2 kts | 28° |
| 2026-04-22 15:08 | 13.91292 | 100.60297 | 17 ft | 5 kts | 28° |
| 2026-04-22 15:09 | 13.91330 | 100.60319 | 17 ft | 8 kts | 28° |
| 2026-04-22 15:09 | 13.91386 | 100.60338 | 17 ft | 10 kts | 353° |
| 2026-04-22 15:09 | 13.91430 | 100.60285 | 17 ft | 11 kts | 299° |
| 2026-04-22 15:09 | 13.91474 | 100.60204 | 17 ft | 14 kts | 299° |
| 2026-04-22 15:10 | 13.91491 | 100.60171 | 17 ft | 2 kts | 299° |
| 2026-04-22 15:10 | 13.91507 | 100.60143 | 17 ft | 7 kts | 299° |
| 2026-04-22 15:10 | 13.91519 | 100.60105 | 17 ft | 4 kts | 240° |
| 2026-04-22 15:10 | 13.91503 | 100.60095 | 17 ft | 3 kts | 208° |
| 2026-04-22 15:11 | 13.91480 | 100.60081 | 17 ft | 4 kts | 209° |
| 2026-04-22 15:11 | 13.91461 | 100.60071 | 17 ft | 0 kts | 209° |
| 2026-04-22 15:11 | 13.91458 | 100.60069 | 17 ft | 0 kts | 209° |